Time;durP1;ratioP1;P1;durP2;ratioP2;P2;SDS_P1;SDS_P2;PMS_P1;PMS_P2;Temp;Humidity;BMP_temperature;BMP_pressure;BME280_temperature;BME280_humidity;BME280_pressure;Samples;Min_cycle;Max_cycle;Signal;HPM_P1;HPM_P2
2024/01/05 00:00:10;;;;;;;10.53;1.83;;;;;;;;;;5089642;28;20032;-67
2024/01/05 00:02:35;;;;;;;3.70;1.42;;;;;;;;;;5090656;28;20273;-67
2024/01/05 00:05:00;;;;;;;6.45;1.23;;;;;;;;;;5089411;28;20024;-67
2024/01/05 00:07:25;;;;;;;8.93;1.45;;;;;;;;;;5090791;28;20024;-67
2024/01/05 00:09:51;;;;;;;8.20;1.50;;;;;;;;;;5090874;28;20123;-67
2024/01/05 00:12:16;;;;;;;10.05;1.50;;;;;;;;;;5091086;28;20432;-66
2024/01/05 00:14:41;;;;;;;7.10;1.77;;;;;;;;;;5090549;28;20035;-66
2024/01/05 00:17:07;;;;;;;4.88;1.38;;;;;;;;;;5090696;28;20161;-66
2024/01/05 00:19:32;;;;;;;7.22;1.70;;;;;;;;;;5089624;28;20028;-66
2024/01/05 00:21:57;;;;;;;4.87;1.70;;;;;;;;;;5090910;28;20027;-66
2024/01/05 00:24:22;;;;;;;6.57;2.17;;;;;;;;;;5090414;28;20297;-66
2024/01/05 00:26:47;;;;;;;2.23;0.90;;;;;;;;;;5091400;28;20035;-66
2024/01/05 00:29:13;;;;;;;5.80;1.10;;;;;;;;;;5094398;28;20262;-66
2024/01/05 00:31:39;;;;;;;5.10;1.17;;;;;;;;;;5091511;28;20304;-66
2024/01/05 00:34:04;;;;;;;3.70;1.30;;;;;;;;;;5093972;28;20467;-66
2024/01/05 00:36:29;;;;;;;5.30;1.33;;;;;;;;;;5093931;28;20023;-66
2024/01/05 00:38:55;;;;;;;4.30;0.97;;;;;;;;;;5093704;28;20277;-66
2024/01/05 00:41:20;;;;;;;4.35;1.30;;;;;;;;;;5092425;28;20357;-66
2024/01/05 00:43:45;;;;;;;3.77;1.20;;;;;;;;;;5093847;28;20099;-66
2024/01/05 00:46:10;;;;;;;3.92;1.55;;;;;;;;;;5093956;28;20270;-66
2024/01/05 00:48:36;;;;;;;1.83;0.90;;;;;;;;;;5093913;28;20020;-66
2024/01/05 00:51:01;;;;;;;4.55;1.63;;;;;;;;;;5094048;28;20027;-66
2024/01/05 00:53:26;;;;;;;8.55;2.13;;;;;;;;;;5094165;28;20062;-66
2024/01/05 00:55:52;;;;;;;2.33;1.13;;;;;;;;;;5094075;28;20020;-66
2024/01/05 00:58:17;;;;;;;4.75;0.90;;;;;;;;;;5090340;28;20039;-66
2024/01/05 01:00:42;;;;;;;5.05;1.25;;;;;;;;;;5088260;28;20028;-66
2024/01/05 01:03:07;;;;;;;4.50;1.40;;;;;;;;;;5092578;28;20016;-66
2024/01/05 01:05:32;;;;;;;8.73;1.35;;;;;;;;;;5093331;28;20048;-66
2024/01/05 01:07:58;;;;;;;4.07;1.20;;;;;;;;;;5093099;28;20126;-65
2024/01/05 01:10:23;;;;;;;4.22;1.52;;;;;;;;;;5092775;28;20272;-65
2024/01/05 01:12:48;;;;;;;3.77;1.37;;;;;;;;;;5093818;28;20471;-66
2024/01/05 01:15:13;;;;;;;5.83;1.63;;;;;;;;;;5093771;28;20894;-66
2024/01/05 01:17:39;;;;;;;4.68;1.02;;;;;;;;;;5093602;28;20270;-67
2024/01/05 01:20:05;;;;;;;6.25;1.38;;;;;;;;;;5092432;28;20401;-66
2024/01/05 01:22:30;;;;;;;3.45;1.00;;;;;;;;;;5093439;28;20020;-66
2024/01/05 01:24:55;;;;;;;9.53;1.23;;;;;;;;;;5090124;28;20024;-66
2024/01/05 01:27:20;;;;;;;3.47;1.37;;;;;;;;;;5091736;28;20616;-66
2024/01/05 01:29:45;;;;;;;3.78;0.90;;;;;;;;;;5091771;28;20608;-66
2024/01/05 01:32:11;;;;;;;3.83;1.20;;;;;;;;;;5092072;28;20052;-68
2024/01/05 01:34:38;;;;;;;2.15;0.70;;;;;;;;;;5092516;28;20347;-67
2024/01/05 01:37:03;;;;;;;3.83;1.20;;;;;;;;;;5093373;28;20036;-67
2024/01/05 01:39:29;;;;;;;3.60;1.30;;;;;;;;;;5093054;28;20055;-66
2024/01/05 01:41:54;;;;;;;6.70;1.50;;;;;;;;;;5091294;28;20028;-68
2024/01/05 01:44:19;;;;;;;6.82;0.98;;;;;;;;;;5093551;28;20161;-68
2024/01/05 01:46:44;;;;;;;7.63;1.38;;;;;;;;;;5092732;28;20047;-68
2024/01/05 01:49:10;;;;;;;4.95;0.93;;;;;;;;;;5088962;28;20091;-68
2024/01/05 01:51:35;;;;;;;5.30;1.00;;;;;;;;;;5092778;28;20479;-68
2024/01/05 01:54:02;;;;;;;3.78;1.08;;;;;;;;;;5091770;28;20632;-68
2024/01/05 01:56:27;;;;;;;4.43;1.10;;;;;;;;;;5092104;28;20474;-68
2024/01/05 01:58:53;;;;;;;5.07;1.15;;;;;;;;;;5091505;28;20069;-68
2024/01/05 02:01:18;;;;;;;3.83;1.10;;;;;;;;;;5089106;28;20034;-68
2024/01/05 02:03:43;;;;;;;4.38;1.15;;;;;;;;;;5092346;28;20023;-68
2024/01/05 02:06:09;;;;;;;5.50;1.15;;;;;;;;;;5090887;28;20020;-68
2024/01/05 02:08:34;;;;;;;6.38;1.23;;;;;;;;;;5092639;28;20024;-68
2024/01/05 02:10:59;;;;;;;6.00;0.85;;;;;;;;;;5091763;28;20081;-68
2024/01/05 02:13:24;;;;;;;3.43;1.00;;;;;;;;;;5092059;28;20031;-68
2024/01/05 02:15:50;;;;;;;6.37;1.60;;;;;;;;;;5088786;28;20324;-68
2024/01/05 02:18:15;;;;;;;2.67;0.85;;;;;;;;;;5090260;28;20274;-68
2024/01/05 02:20:44;;;;;;;6.63;1.63;;;;;;;;;;5074448;28;20032;-68
2024/01/05 02:23:14;;;;;;;3.13;1.00;;;;;;;;;;5092122;28;20024;-67
2024/01/05 02:25:40;;;;;;;2.50;1.33;;;;;;;;;;5091979;28;20024;-67
2024/01/05 02:28:05;;;;;;;5.22;1.02;;;;;;;;;;5092207;28;20066;-68
2024/01/05 02:30:30;;;;;;;3.63;1.10;;;;;;;;;;5092583;28;20043;-68
2024/01/05 02:32:55;;;;;;;4.97;1.27;;;;;;;;;;5092437;28;20298;-67
2024/01/05 02:35:21;;;;;;;6.03;1.40;;;;;;;;;;5081029;28;20119;-68
2024/01/05 02:37:46;;;;;;;5.53;1.20;;;;;;;;;;5091833;28;20378;-68
2024/01/05 02:40:11;;;;;;;2.87;1.10;;;;;;;;;;5091813;28;20040;-68
2024/01/05 02:42:36;;;;;;;7.63;1.45;;;;;;;;;;5092186;28;20613;-68
2024/01/05 02:45:02;;;;;;;5.10;1.10;;;;;;;;;;5092410;28;20028;-68
2024/01/05 02:47:27;;;;;;;4.80;1.00;;;;;;;;;;5090640;28;20028;-68
2024/01/05 02:49:52;;;;;;;2.57;1.17;;;;;;;;;;5088261;28;20020;-68
2024/01/05 02:52:17;;;;;;;5.17;1.53;;;;;;;;;;5091881;28;20793;-68
2024/01/05 02:54:44;;;;;;;4.17;0.90;;;;;;;;;;5092302;28;20270;-68
2024/01/05 02:57:09;;;;;;;8.25;1.38;;;;;;;;;;5091644;28;20320;-67
2024/01/05 02:59:34;;;;;;;8.15;1.13;;;;;;;;;;5092051;28;20401;-68
2024/01/05 03:02:01;;;;;;;3.95;1.10;;;;;;;;;;5090507;28;20024;-68
2024/01/05 03:04:26;;;;;;;5.82;0.98;;;;;;;;;;5091738;28;20471;-68
2024/01/05 03:06:51;;;;;;;4.43;0.77;;;;;;;;;;5091499;28;20038;-68
2024/01/05 03:09:16;;;;;;;3.93;1.00;;;;;;;;;;5090441;28;20381;-68
2024/01/05 03:11:41;;;;;;;2.23;0.83;;;;;;;;;;5080056;28;20317;-67
2024/01/05 03:14:07;;;;;;;5.63;1.00;;;;;;;;;;5089253;28;20318;-68
2024/01/05 03:16:32;;;;;;;4.27;1.33;;;;;;;;;;5091328;28;20127;-68
2024/01/05 03:18:57;;;;;;;3.17;0.95;;;;;;;;;;5091133;28;20270;-68
2024/01/05 03:21:22;;;;;;;6.85;1.50;;;;;;;;;;5091043;28;20024;-68
2024/01/05 03:23:47;;;;;;;4.57;1.23;;;;;;;;;;5085186;28;20024;-68
2024/01/05 03:26:13;;;;;;;1.80;0.80;;;;;;;;;;5085434;28;20274;-68
2024/01/05 03:28:39;;;;;;;3.90;1.00;;;;;;;;;;5086062;28;20281;-67
2024/01/05 03:31:04;;;;;;;5.45;1.17;;;;;;;;;;5091518;28;20606;-67
2024/01/05 03:33:29;;;;;;;4.25;1.08;;;;;;;;;;5091657;28;20078;-67
2024/01/05 03:35:54;;;;;;;3.53;1.07;;;;;;;;;;5086101;28;20021;-67
2024/01/05 03:38:20;;;;;;;5.43;1.10;;;;;;;;;;5085360;28;20300;-67
2024/01/05 03:40:45;;;;;;;3.73;1.03;;;;;;;;;;5091596;28;20274;-67
2024/01/05 03:43:10;;;;;;;10.27;1.10;;;;;;;;;;5091462;28;20292;-67
2024/01/05 03:45:36;;;;;;;3.17;1.00;;;;;;;;;;5086134;28;20281;-68
2024/01/05 03:48:01;;;;;;;6.85;0.90;;;;;;;;;;5089890;28;20262;-67
2024/01/05 03:50:27;;;;;;;8.15;0.80;;;;;;;;;;5091301;28;20032;-67
2024/01/05 03:52:52;;;;;;;2.17;0.75;;;;;;;;;;5089283;28;20059;-67
2024/01/05 03:55:17;;;;;;;7.25;1.40;;;;;;;;;;5090907;28;20017;-67
2024/01/05 03:57:43;;;;;;;7.57;1.55;;;;;;;;;;5090015;28;20012;-67
2024/01/05 04:00:09;;;;;;;1.90;0.80;;;;;;;;;;5090860;28;20024;-66
2024/01/05 04:02:34;;;;;;;5.70;1.27;;;;;;;;;;5088635;28;20258;-66
2024/01/05 04:04:59;;;;;;;6.80;1.60;;;;;;;;;;5093917;28;20030;-66
2024/01/05 04:07:25;;;;;;;6.05;0.90;;;;;;;;;;5094432;28;20274;-66
2024/01/05 04:09:51;;;;;;;2.90;1.10;;;;;;;;;;5095299;28;20124;-66
2024/01/05 04:12:17;;;;;;;3.55;1.08;;;;;;;;;;5093229;28;20115;-66
2024/01/05 04:14:43;;;;;;;4.88;1.42;;;;;;;;;;5092302;28;20100;-66
2024/01/05 04:17:08;;;;;;;2.38;0.55;;;;;;;;;;5076659;28;20027;-65
2024/01/05 04:19:33;;;;;;;2.30;0.97;;;;;;;;;;5093291;28;20022;-66
2024/01/05 04:21:58;;;;;;;4.72;0.93;;;;;;;;;;5094923;28;20262;-66
2024/01/05 04:24:24;;;;;;;2.53;0.57;;;;;;;;;;5094844;28;20099;-67
2024/01/05 04:26:49;;;;;;;3.40;0.90;;;;;;;;;;5089615;28;20293;-65
2024/01/05 04:29:14;;;;;;;9.23;1.53;;;;;;;;;;5092617;28;20462;-68
2024/01/05 04:31:39;;;;;;;3.40;0.60;;;;;;;;;;5093660;28;20292;-67
2024/01/05 04:34:05;;;;;;;2.75;0.60;;;;;;;;;;5094587;28;20323;-67
2024/01/05 04:36:30;;;;;;;4.57;1.00;;;;;;;;;;5093594;28;20344;-67
2024/01/05 04:38:55;;;;;;;8.17;0.87;;;;;;;;;;5094298;28;20632;-69
2024/01/05 04:41:20;;;;;;;3.17;0.80;;;;;;;;;;5094000;28;20760;-68
2024/01/05 04:43:46;;;;;;;3.42;0.68;;;;;;;;;;5088945;28;20271;-67
2024/01/05 04:46:11;;;;;;;2.83;0.73;;;;;;;;;;5089608;28;20388;-67
2024/01/05 04:48:36;;;;;;;3.88;0.82;;;;;;;;;;5088214;28;20753;-69
2024/01/05 04:51:02;;;;;;;2.75;0.70;;;;;;;;;;5084887;28;20032;-67
2024/01/05 04:53:27;;;;;;;4.40;0.98;;;;;;;;;;5093159;28;20024;-69
2024/01/05 04:55:52;;;;;;;5.82;1.25;;;;;;;;;;5093605;28;20035;-67
2024/01/05 04:58:18;;;;;;;2.70;0.63;;;;;;;;;;5093503;28;21280;-68
2024/01/05 05:00:43;;;;;;;3.55;0.77;;;;;;;;;;5091346;28;20023;-68
2024/01/05 05:03:13;;;;;;;5.22;1.05;;;;;;;;;;5087773;28;20525;-65
2024/01/05 05:05:38;;;;;;;2.22;0.70;;;;;;;;;;5090154;28;20107;-68
2024/01/05 05:08:04;;;;;;;3.38;0.60;;;;;;;;;;5092612;28;20442;-68
2024/01/05 05:10:29;;;;;;;2.70;0.98;;;;;;;;;;5094294;28;20028;-67
2024/01/05 05:12:55;;;;;;;2.23;0.70;;;;;;;;;;5092422;28;20053;-66
2024/01/05 05:15:20;;;;;;;2.10;0.60;;;;;;;;;;5093410;28;20365;-67
2024/01/05 05:17:45;;;;;;;5.10;1.05;;;;;;;;;;5093765;28;20032;-66
2024/01/05 05:20:11;;;;;;;2.15;0.70;;;;;;;;;;5092315;28;20465;-67
2024/01/05 05:22:36;;;;;;;3.17;0.93;;;;;;;;;;5092904;28;20024;-67
2024/01/05 05:25:02;;;;;;;5.35;0.80;;;;;;;;;;5092623;28;20019;-66
2024/01/05 05:27:27;;;;;;;2.60;0.70;;;;;;;;;;5093289;28;20032;-67
2024/01/05 05:29:52;;;;;;;3.77;0.87;;;;;;;;;;5093347;28;20099;-67
2024/01/05 05:32:17;;;;;;;3.30;0.77;;;;;;;;;;5093460;28;20318;-67
2024/01/05 05:34:44;;;;;;;3.63;0.60;;;;;;;;;;5088303;28;20298;-67
2024/01/05 05:37:09;;;;;;;1.88;0.60;;;;;;;;;;5093396;28;20365;-66
2024/01/05 05:39:35;;;;;;;1.80;0.50;;;;;;;;;;5092789;28;20059;-66
2024/01/05 05:42:00;;;;;;;1.83;0.57;;;;;;;;;;5091801;28;20048;-66
2024/01/05 05:44:25;;;;;;;0.60;0.23;;;;;;;;;;5082977;28;20418;-67
2024/01/05 05:46:50;;;;;;;3.60;0.75;;;;;;;;;;5092759;28;20692;-68
2024/01/05 05:49:16;;;;;;;3.67;0.90;;;;;;;;;;5091846;28;20020;-68
2024/01/05 05:51:41;;;;;;;2.15;0.63;;;;;;;;;;5092177;28;20308;-66
2024/01/05 05:54:06;;;;;;;2.55;0.73;;;;;;;;;;5093073;28;20098;-68
2024/01/05 05:56:31;;;;;;;2.10;0.53;;;;;;;;;;5093330;28;20040;-68
2024/01/05 05:58:57;;;;;;;2.47;0.57;;;;;;;;;;5093517;28;20301;-68
2024/01/05 06:01:23;;;;;;;1.77;0.50;;;;;;;;;;5093072;28;20050;-68
2024/01/05 06:03:48;;;;;;;5.63;0.95;;;;;;;;;;5090317;28;20416;-68
2024/01/05 06:06:18;;;;;;;1.67;0.50;;;;;;;;;;5092884;28;20111;-68
2024/01/05 06:08:44;;;;;;;4.95;1.13;;;;;;;;;;5092753;28;20050;-68
2024/01/05 06:11:09;;;;;;;4.40;0.85;;;;;;;;;;5092196;28;20024;-68
2024/01/05 06:13:34;;;;;;;3.83;0.67;;;;;;;;;;5091999;28;20024;-65
2024/01/05 06:15:59;;;;;;;2.13;0.70;;;;;;;;;;5092831;28;20278;-66
2024/01/05 06:18:26;;;;;;;0.88;0.30;;;;;;;;;;5092392;28;20286;-68
2024/01/05 06:20:51;;;;;;;1.10;0.40;;;;;;;;;;5092482;28;20030;-68
2024/01/05 06:23:16;;;;;;;2.13;0.43;;;;;;;;;;5090849;28;20016;-68
2024/01/05 06:25:41;;;;;;;2.53;0.33;;;;;;;;;;5092196;28;20321;-67
2024/01/05 06:28:06;;;;;;;1.50;0.40;;;;;;;;;;5092156;28;20306;-68
2024/01/05 06:30:32;;;;;;;1.83;0.60;;;;;;;;;;5092251;28;20341;-68
2024/01/05 06:32:57;;;;;;;0.63;0.17;;;;;;;;;;5092266;28;20325;-68
2024/01/05 06:35:22;;;;;;;1.40;0.30;;;;;;;;;;5091732;28;20319;-68
2024/01/05 06:37:47;;;;;;;0.40;0.13;;;;;;;;;;5090321;28;20270;-68
2024/01/05 06:40:12;;;;;;;1.35;0.40;;;;;;;;;;5090990;28;20323;-68
2024/01/05 06:42:38;;;;;;;0.30;0.13;;;;;;;;;;5092287;28;20458;-68
2024/01/05 06:45:03;;;;;;;1.52;0.10;;;;;;;;;;5085528;28;20024;-68
2024/01/05 06:47:29;;;;;;;0.30;0.10;;;;;;;;;;5090251;28;20378;-67
2024/01/05 06:49:54;;;;;;;1.35;0.20;;;;;;;;;;5091955;28;20036;-67
2024/01/05 06:52:20;;;;;;;0.80;0.22;;;;;;;;;;5092284;28;20036;-68
2024/01/05 06:54:45;;;;;;;0.98;0.22;;;;;;;;;;5091315;28;20032;-67
2024/01/05 06:57:10;;;;;;;2.45;0.45;;;;;;;;;;5092019;28;20479;-67
2024/01/05 06:59:37;;;;;;;1.27;0.20;;;;;;;;;;5091955;28;20047;-67
2024/01/05 07:02:03;;;;;;;0.60;0.20;;;;;;;;;;5089943;28;20058;-67
2024/01/05 07:04:29;;;;;;;0.10;0.10;;;;;;;;;;5091082;28;20071;-67
2024/01/05 07:06:54;;;;;;;3.60;0.20;;;;;;;;;;5092525;28;20012;-65
2024/01/05 07:09:19;;;;;;;0.93;0.30;;;;;;;;;;5091919;28;20271;-66
2024/01/05 07:11:44;;;;;;;1.90;0.27;;;;;;;;;;5091303;28;20282;-66
2024/01/05 07:14:09;;;;;;;1.45;0.10;;;;;;;;;;5092381;28;20284;-65
2024/01/05 07:16:35;;;;;;;1.77;0.10;;;;;;;;;;5057526;28;20127;-66
2024/01/05 07:19:00;;;;;;;1.65;0.30;;;;;;;;;;5041815;28;20361;-66
2024/01/05 07:21:25;;;;;;;1.25;0.20;;;;;;;;;;5042540;28;20032;-66
2024/01/05 07:23:50;;;;;;;2.53;0.20;;;;;;;;;;5044232;28;20904;-66
2024/01/05 07:26:20;;;;;;;0.40;0.20;;;;;;;;;;5031762;28;20038;-67
2024/01/05 07:28:45;;;;;;;0.52;0.20;;;;;;;;;;5031971;28;20039;-67
2024/01/05 07:31:11;;;;;;;0.90;0.10;;;;;;;;;;5044804;28;20024;-65
2024/01/05 07:33:36;;;;;;;0.43;0.20;;;;;;;;;;5043514;28;20024;-68
2024/01/05 07:36:04;;;;;;;1.07;0.23;;;;;;;;;;5042872;28;20369;-67
2024/01/05 07:38:29;;;;;;;0.57;0.10;;;;;;;;;;5039700;28;20294;-67
2024/01/05 07:40:54;;;;;;;0.20;0.00;;;;;;;;;;5044456;28;20035;-67
2024/01/05 07:43:19;;;;;;;0.73;0.20;;;;;;;;;;5044896;28;20328;-68
2024/01/05 07:45:45;;;;;;;2.73;0.33;;;;;;;;;;5045207;28;20020;-68
2024/01/05 07:48:10;;;;;;;1.27;0.20;;;;;;;;;;5046685;28;20336;-67
2024/01/05 07:50:35;;;;;;;0.43;0.20;;;;;;;;;;5043118;28;20077;-67
2024/01/05 07:53:00;;;;;;;2.90;0.10;;;;;;;;;;5041241;28;20035;-67
2024/01/05 07:55:26;;;;;;;0.68;0.20;;;;;;;;;;5044125;28;20751;-67
2024/01/05 07:57:51;;;;;;;1.80;0.33;;;;;;;;;;5042999;28;20035;-67
2024/01/05 08:00:16;;;;;;;2.40;0.38;;;;;;;;;;5045319;28;20266;-67
2024/01/05 08:02:41;;;;;;;0.95;0.20;;;;;;;;;;5044949;28;20035;-67
2024/01/05 08:05:07;;;;;;;1.27;0.13;;;;;;;;;;5042988;28;20028;-66
2024/01/05 08:07:32;;;;;;;0.30;0.17;;;;;;;;;;5043470;28;20012;-67
2024/01/05 08:09:57;;;;;;;0.15;0.08;;;;;;;;;;5011624;28;20036;-67
2024/01/05 08:12:22;;;;;;;0.30;0.10;;;;;;;;;;5083055;28;20064;-66
2024/01/05 08:14:48;;;;;;;0.83;0.27;;;;;;;;;;5044262;28;20278;-68
2024/01/05 08:17:14;;;;;;;1.20;0.20;;;;;;;;;;5042499;28;20286;-67
2024/01/05 08:19:39;;;;;;;1.10;0.30;;;;;;;;;;5037470;28;20016;-67
2024/01/05 08:22:04;;;;;;;0.85;0.30;;;;;;;;;;5035273;28;20016;-67
2024/01/05 08:24:30;;;;;;;0.93;0.20;;;;;;;;;;5043061;28;20809;-68
2024/01/05 08:26:55;;;;;;;1.33;0.20;;;;;;;;;;5046340;28;21035;-66
2024/01/05 08:29:23;;;;;;;1.20;0.30;;;;;;;;;;5045342;28;20024;-67
2024/01/05 08:31:49;;;;;;;1.85;0.30;;;;;;;;;;5056254;28;20290;-68
2024/01/05 08:34:14;;;;;;;1.65;0.40;;;;;;;;;;5089534;28;20535;-67
2024/01/05 08:36:40;;;;;;;0.77;0.30;;;;;;;;;;5077586;28;20885;-68
2024/01/05 08:39:05;;;;;;;0.57;0.15;;;;;;;;;;5081491;28;20970;-67
2024/01/05 08:41:30;;;;;;;0.50;0.20;;;;;;;;;;5080608;28;20028;-67
2024/01/05 08:43:56;;;;;;;1.27;0.40;;;;;;;;;;5084844;28;20926;-67
2024/01/05 08:46:21;;;;;;;1.38;0.20;;;;;;;;;;5088610;28;20028;-67
2024/01/05 08:48:46;;;;;;;1.30;0.20;;;;;;;;;;5087577;28;20028;-67
2024/01/05 08:51:11;;;;;;;1.43;0.33;;;;;;;;;;5085552;28;20032;-67
2024/01/05 08:53:37;;;;;;;1.65;0.35;;;;;;;;;;5075465;28;20339;-68
2024/01/05 08:56:03;;;;;;;0.55;0.22;;;;;;;;;;5093710;28;20351;-67
2024/01/05 08:58:28;;;;;;;2.03;0.28;;;;;;;;;;5093502;28;20110;-68
2024/01/05 09:00:53;;;;;;;0.70;0.30;;;;;;;;;;5092581;28;20103;-67
2024/01/05 09:03:18;;;;;;;1.67;0.43;;;;;;;;;;5093387;28;20302;-67
2024/01/05 09:05:45;;;;;;;1.33;0.22;;;;;;;;;;5093204;28;20021;-67
2024/01/05 09:08:10;;;;;;;3.05;0.50;;;;;;;;;;5092963;28;20028;-67
2024/01/05 09:10:35;;;;;;;1.90;0.40;;;;;;;;;;5092567;28;20038;-67
2024/01/05 09:13:01;;;;;;;1.58;0.40;;;;;;;;;;5093717;28;20066;-67
2024/01/05 09:15:26;;;;;;;0.10;0.10;;;;;;;;;;5093386;28;20035;-67
2024/01/05 09:17:51;;;;;;;0.95;0.30;;;;;;;;;;5092768;28;20085;-67
2024/01/05 09:20:17;;;;;;;1.88;0.52;;;;;;;;;;5091627;28;20096;-67
2024/01/05 09:22:42;;;;;;;1.33;0.30;;;;;;;;;;5089258;28;20527;-67
2024/01/05 09:25:08;;;;;;;2.17;0.50;;;;;;;;;;5083875;28;20827;-66
2024/01/05 09:27:33;;;;;;;1.50;0.32;;;;;;;;;;5093876;28;20027;-67
2024/01/05 09:29:58;;;;;;;1.00;0.32;;;;;;;;;;5092179;28;20020;-67
2024/01/05 09:32:24;;;;;;;1.40;0.33;;;;;;;;;;5088033;28;20023;-67
2024/01/05 09:34:49;;;;;;;1.92;0.40;;;;;;;;;;5092996;28;20364;-68
2024/01/05 09:37:14;;;;;;;1.73;0.50;;;;;;;;;;5092048;28;20119;-67
2024/01/05 09:39:39;;;;;;;1.97;0.83;;;;;;;;;;5093081;28;20032;-70
2024/01/05 09:42:05;;;;;;;2.07;0.70;;;;;;;;;;5092534;28;20288;-68
2024/01/05 09:44:31;;;;;;;2.63;0.55;;;;;;;;;;5092773;28;20270;-67
2024/01/05 09:46:57;;;;;;;3.22;0.43;;;;;;;;;;5092105;28;20398;-67
2024/01/05 09:49:22;;;;;;;1.80;0.50;;;;;;;;;;5092147;28;20028;-66
2024/01/05 09:51:47;;;;;;;2.05;0.60;;;;;;;;;;5092238;28;20020;-66
2024/01/05 09:54:13;;;;;;;2.67;0.70;;;;;;;;;;5092615;28;20401;-67
2024/01/05 09:56:40;;;;;;;3.05;0.43;;;;;;;;;;5091453;28;20423;-68
2024/01/05 09:59:06;;;;;;;2.35;0.38;;;;;;;;;;5091611;28;20375;-69
2024/01/05 10:01:34;;;;;;;1.75;0.50;;;;;;;;;;5089900;28;20462;-68
2024/01/05 10:04:01;;;;;;;2.25;0.55;;;;;;;;;;5092503;28;20020;-68
2024/01/05 10:06:27;;;;;;;3.53;0.98;;;;;;;;;;5092800;28;20035;-67
2024/01/05 10:08:53;;;;;;;3.70;0.75;;;;;;;;;;5092284;28;20020;-68
2024/01/05 10:11:27;;;;;;;1.27;0.50;;;;;;;;;;5091518;28;20023;-67
2024/01/05 10:13:54;;;;;;;1.75;0.60;;;;;;;;;;5091447;28;20084;-67
2024/01/05 10:16:23;;;;;;;1.60;0.60;;;;;;;;;;5092184;28;20080;-67
2024/01/05 10:18:49;;;;;;;3.30;0.80;;;;;;;;;;5090139;28;20045;-67
2024/01/05 10:21:14;;;;;;;3.00;1.00;;;;;;;;;;5092331;28;20107;-68
2024/01/05 10:23:42;;;;;;;1.58;0.60;;;;;;;;;;5091659;28;20027;-67
2024/01/05 10:26:18;;;;;;;4.32;0.70;;;;;;;;;;5091475;28;20482;-67
2024/01/05 10:28:43;;;;;;;2.65;1.00;;;;;;;;;;5091662;28;20035;-67
2024/01/05 10:31:10;;;;;;;5.80;1.25;;;;;;;;;;5091240;28;20047;-67
2024/01/05 10:33:46;;;;;;;2.65;0.60;;;;;;;;;;5092343;28;20106;-67
2024/01/05 10:36:11;;;;;;;2.10;0.73;;;;;;;;;;5088997;28;20109;-67
2024/01/05 10:38:37;;;;;;;2.47;0.80;;;;;;;;;;5085722;28;20077;-67
2024/01/05 10:41:06;;;;;;;3.45;0.90;;;;;;;;;;5088047;28;20277;-67
2024/01/05 10:43:32;;;;;;;2.15;0.63;;;;;;;;;;5089271;28;20169;-67
2024/01/05 10:45:58;;;;;;;1.98;0.63;;;;;;;;;;5088797;28;20028;-67
2024/01/05 10:48:23;;;;;;;3.63;0.73;;;;;;;;;;5089004;28;20043;-67
2024/01/05 10:50:49;;;;;;;3.80;0.73;;;;;;;;;;5087984;28;20081;-67
2024/01/05 10:53:14;;;;;;;2.25;0.50;;;;;;;;;;5080614;28;20093;-67
2024/01/05 10:55:42;;;;;;;2.20;0.70;;;;;;;;;;5075542;28;20145;-67
2024/01/05 10:58:10;;;;;;;2.63;0.98;;;;;;;;;;5077057;28;20139;-66
2024/01/05 11:00:38;;;;;;;2.15;0.75;;;;;;;;;;5072641;28;20801;-66
2024/01/05 11:03:10;;;;;;;5.47;0.50;;;;;;;;;;5072443;28;20089;-66
2024/01/05 11:05:36;;;;;;;4.07;0.95;;;;;;;;;;5077113;28;20020;-66
2024/01/05 11:08:05;;;;;;;2.00;0.75;;;;;;;;;;5074025;28;20131;-66
2024/01/05 11:10:33;;;;;;;3.50;0.60;;;;;;;;;;5068714;28;20099;-66
2024/01/05 11:13:16;;;;;;;3.83;0.80;;;;;;;;;;5075893;28;20032;-72
2024/01/05 11:15:49;;;;;;;2.70;0.50;;;;;;;;;;5078897;28;20385;-66
2024/01/05 11:18:14;;;;;;;1.92;0.60;;;;;;;;;;5082000;28;20025;-66
2024/01/05 11:20:49;;;;;;;2.78;0.80;;;;;;;;;;5076991;28;20043;-68
2024/01/05 11:23:15;;;;;;;2.28;0.45;;;;;;;;;;5066567;28;20043;-67
2024/01/05 11:25:42;;;;;;;7.38;2.75;;;;;;;;;;5084032;28;20020;-67
2024/01/05 11:28:08;;;;;;;8.07;1.00;;;;;;;;;;5077917;28;20032;-68
2024/01/05 11:30:40;;;;;;;3.63;0.80;;;;;;;;;;5073308;28;20870;-67
2024/01/05 11:33:09;;;;;;;3.38;1.00;;;;;;;;;;5053544;28;20913;-67
2024/01/05 11:35:42;;;;;;;1.85;0.63;;;;;;;;;;5064993;28;20074;-67
2024/01/05 11:38:23;;;;;;;1.80;0.55;;;;;;;;;;5075711;28;20037;-67
2024/01/05 11:40:48;;;;;;;4.40;0.93;;;;;;;;;;5075186;28;20127;-66
2024/01/05 11:43:29;;;;;;;4.07;1.17;;;;;;;;;;5081274;28;20123;-67
2024/01/05 11:45:55;;;;;;;4.38;0.82;;;;;;;;;;5081839;28;20058;-66
2024/01/05 11:48:35;;;;;;;4.70;0.88;;;;;;;;;;5079384;28;20047;-67
2024/01/05 11:51:07;;;;;;;5.28;0.75;;;;;;;;;;5085039;28;20032;-68
2024/01/05 11:53:33;;;;;;;5.20;0.70;;;;;;;;;;5067517;28;20386;-66
2024/01/05 11:55:58;;;;;;;4.72;0.90;;;;;;;;;;5074567;28;20023;-66
2024/01/05 11:58:28;;;;;;;2.47;0.60;;;;;;;;;;5081486;28;20020;-66
2024/01/05 12:00:54;;;;;;;5.32;1.80;;;;;;;;;;5079188;28;20075;-66
2024/01/05 12:03:22;;;;;;;4.18;1.27;;;;;;;;;;5072471;28;20612;-66
2024/01/05 12:05:48;;;;;;;4.63;1.27;;;;;;;;;;5084765;28;20032;-65
2024/01/05 12:08:14;;;;;;;4.90;1.02;;;;;;;;;;5082075;28;20111;-65
2024/01/05 12:10:39;;;;;;;3.42;0.98;;;;;;;;;;5079005;28;20454;-65
2024/01/05 12:13:05;;;;;;;2.40;0.98;;;;;;;;;;5075918;28;20083;-66
2024/01/05 12:15:31;;;;;;;4.28;1.13;;;;;;;;;;5074916;28;20555;-65
2024/01/05 12:18:03;;;;;;;2.97;0.80;;;;;;;;;;5075238;28;20032;-65
2024/01/05 12:20:28;;;;;;;3.63;1.00;;;;;;;;;;5082786;28;20063;-66
2024/01/05 12:22:54;;;;;;;2.83;1.17;;;;;;;;;;5080277;28;20107;-66
2024/01/05 12:25:19;;;;;;;2.05;0.73;;;;;;;;;;5077295;28;20321;-66
2024/01/05 12:27:44;;;;;;;4.40;1.17;;;;;;;;;;5085063;28;20493;-66
2024/01/05 12:30:12;;;;;;;3.72;1.17;;;;;;;;;;5080899;28;20282;-66
2024/01/05 12:32:38;;;;;;;4.28;1.48;;;;;;;;;;5080102;28;20521;-66
2024/01/05 12:35:04;;;;;;;4.75;1.42;;;;;;;;;;5081959;28;20111;-66
2024/01/05 12:37:29;;;;;;;4.30;1.10;;;;;;;;;;5073961;28;20112;-67
2024/01/05 12:39:54;;;;;;;3.75;1.05;;;;;;;;;;5053788;28;20020;-67
2024/01/05 12:42:20;;;;;;;6.55;1.33;;;;;;;;;;5080780;28;20515;-66
2024/01/05 12:44:45;;;;;;;2.40;0.80;;;;;;;;;;5085861;28;20039;-67
2024/01/05 12:47:11;;;;;;;3.72;0.75;;;;;;;;;;5086242;28;20363;-67
2024/01/05 12:49:36;;;;;;;7.45;1.33;;;;;;;;;;5091056;28;20013;-70
2024/01/05 12:52:01;;;;;;;5.43;1.45;;;;;;;;;;5089450;28;20028;-65
2024/01/05 12:54:27;;;;;;;2.85;1.00;;;;;;;;;;5086961;28;20032;-66
2024/01/05 12:56:54;;;;;;;4.13;0.80;;;;;;;;;;5088487;28;20522;-65
2024/01/05 12:59:20;;;;;;;5.95;1.40;;;;;;;;;;5092051;28;20281;-65
2024/01/05 13:01:45;;;;;;;3.38;0.90;;;;;;;;;;5091501;28;20135;-66
2024/01/05 13:04:10;;;;;;;2.60;1.30;;;;;;;;;;5089957;28;20446;-66
2024/01/05 13:06:37;;;;;;;4.55;1.17;;;;;;;;;;5086687;28;20475;-65
2024/01/05 13:09:02;;;;;;;3.58;1.20;;;;;;;;;;5081565;28;20020;-66
2024/01/05 13:11:28;;;;;;;5.65;1.20;;;;;;;;;;5083075;28;20028;-66
2024/01/05 13:13:53;;;;;;;3.88;1.08;;;;;;;;;;5088402;28;20126;-67
2024/01/05 13:16:19;;;;;;;2.75;1.25;;;;;;;;;;5088312;28;20524;-67
2024/01/05 13:18:44;;;;;;;6.38;1.83;;;;;;;;;;5083195;28;20020;-67
2024/01/05 13:21:10;;;;;;;2.88;1.02;;;;;;;;;;5088799;28;20063;-67
2024/01/05 13:23:35;;;;;;;4.10;1.10;;;;;;;;;;5089056;28;20035;-68
2024/01/05 13:26:01;;;;;;;3.63;1.10;;;;;;;;;;5090196;28;20055;-68
2024/01/05 13:28:26;;;;;;;5.05;1.30;;;;;;;;;;5076439;28;20052;-67
2024/01/05 13:30:52;;;;;;;3.20;1.20;;;;;;;;;;5089569;28;20028;-68
2024/01/05 13:33:17;;;;;;;3.22;1.00;;;;;;;;;;5086303;28;20435;-67
2024/01/05 13:35:42;;;;;;;4.10;1.20;;;;;;;;;;5066008;28;20153;-67
2024/01/05 13:38:08;;;;;;;3.35;1.10;;;;;;;;;;5087321;28;20027;-67
2024/01/05 13:40:35;;;;;;;3.80;1.50;;;;;;;;;;5082984;28;20059;-67
2024/01/05 13:43:00;;;;;;;3.10;1.20;;;;;;;;;;5088651;28;20644;-67
2024/01/05 13:45:26;;;;;;;4.07;1.00;;;;;;;;;;5082627;28;20032;-67
2024/01/05 13:47:53;;;;;;;2.35;1.02;;;;;;;;;;5089424;28;20736;-68
2024/01/05 13:50:18;;;;;;;2.33;0.95;;;;;;;;;;5088715;28;20024;-65
2024/01/05 13:52:43;;;;;;;3.28;1.13;;;;;;;;;;5086043;28;20148;-64
2024/01/05 13:55:08;;;;;;;2.20;0.90;;;;;;;;;;5081290;28;20051;-65
2024/01/05 13:57:34;;;;;;;2.55;0.88;;;;;;;;;;5074669;28;20302;-67
2024/01/05 13:59:59;;;;;;;4.43;1.38;;;;;;;;;;5086442;28;20042;-67
2024/01/05 14:02:25;;;;;;;4.45;1.30;;;;;;;;;;5086724;28;20038;-67
2024/01/05 14:04:51;;;;;;;2.83;1.15;;;;;;;;;;5085255;28;20474;-67
2024/01/05 14:07:16;;;;;;;4.00;1.50;;;;;;;;;;5087651;28;20035;-66
2024/01/05 14:09:41;;;;;;;4.93;1.07;;;;;;;;;;5086535;28;20028;-67
2024/01/05 14:12:07;;;;;;;7.50;1.58;;;;;;;;;;5089406;28;20302;-66
2024/01/05 14:14:33;;;;;;;2.72;1.13;;;;;;;;;;5088502;28;20036;-67
2024/01/05 14:16:58;;;;;;;5.22;1.73;;;;;;;;;;5089612;28;20059;-67
2024/01/05 14:19:24;;;;;;;1.98;0.82;;;;;;;;;;5082276;28;20482;-67
2024/01/05 14:21:49;;;;;;;4.05;1.02;;;;;;;;;;5086480;28;20054;-66
2024/01/05 14:24:14;;;;;;;3.60;1.17;;;;;;;;;;5087605;28;20062;-66
2024/01/05 14:26:39;;;;;;;4.32;1.48;;;;;;;;;;5082217;28;20038;-66
2024/01/05 14:29:05;;;;;;;2.53;1.10;;;;;;;;;;5089122;28;20520;-66
2024/01/05 14:31:31;;;;;;;2.90;1.40;;;;;;;;;;5072564;28;20063;-67
2024/01/05 14:33:56;;;;;;;2.67;0.90;;;;;;;;;;5078636;28;20412;-67